sensor_id;sensor_type;location;lat;lon;timestamp;P1;durP1;ratioP1;P2;durP2;ratioP2
4061;SDS011;2046;47.064;15.456;2023-07-24T00:00:50;0.00;;;0.00;;
4061;SDS011;2046;47.064;15.456;2023-07-24T00:03:16;0.10;;;0.10;;
4061;SDS011;2046;47.064;15.456;2023-07-24T00:05:43;0.20;;;0.20;;
4061;SDS011;2046;47.064;15.456;2023-07-24T00:08:09;0.10;;;0.10;;
4061;SDS011;2046;47.064;15.456;2023-07-24T00:10:36;0.50;;;0.50;;
4061;SDS011;2046;47.064;15.456;2023-07-24T00:13:03;0.10;;;0.10;;
4061;SDS011;2046;47.064;15.456;2023-07-24T00:15:29;0.17;;;0.17;;
4061;SDS011;2046;47.064;15.456;2023-07-24T00:17:56;0.05;;;0.05;;
4061;SDS011;2046;47.064;15.456;2023-07-24T00:20:23;0.10;;;0.10;;
4061;SDS011;2046;47.064;15.456;2023-07-24T00:22:50;0.03;;;0.03;;
4061;SDS011;2046;47.064;15.456;2023-07-24T00:25:17;0.00;;;0.00;;
4061;SDS011;2046;47.064;15.456;2023-07-24T00:27:44;0.10;;;0.10;;
4061;SDS011;2046;47.064;15.456;2023-07-24T00:30:10;0.10;;;0.10;;
4061;SDS011;2046;47.064;15.456;2023-07-24T00:32:37;0.10;;;0.10;;
4061;SDS011;2046;47.064;15.456;2023-07-24T00:35:04;0.10;;;0.10;;
4061;SDS011;2046;47.064;15.456;2023-07-24T00:37:31;0.08;;;0.08;;
4061;SDS011;2046;47.064;15.456;2023-07-24T00:39:57;0.10;;;0.10;;
4061;SDS011;2046;47.064;15.456;2023-07-24T00:42:24;0.10;;;0.10;;
4061;SDS011;2046;47.064;15.456;2023-07-24T00:44:50;0.00;;;0.00;;
4061;SDS011;2046;47.064;15.456;2023-07-24T00:47:17;0.10;;;0.10;;
4061;SDS011;2046;47.064;15.456;2023-07-24T00:49:44;0.10;;;0.10;;
4061;SDS011;2046;47.064;15.456;2023-07-24T00:52:11;0.10;;;0.10;;
4061;SDS011;2046;47.064;15.456;2023-07-24T00:54:38;0.10;;;0.10;;
4061;SDS011;2046;47.064;15.456;2023-07-24T00:57:05;0.10;;;0.10;;
4061;SDS011;2046;47.064;15.456;2023-07-24T00:59:31;0.10;;;0.10;;
4061;SDS011;2046;47.064;15.456;2023-07-24T01:01:58;0.10;;;0.10;;
4061;SDS011;2046;47.064;15.456;2023-07-24T01:04:25;0.10;;;0.10;;
4061;SDS011;2046;47.064;15.456;2023-07-24T01:06:52;0.10;;;0.10;;
4061;SDS011;2046;47.064;15.456;2023-07-24T01:09:18;0.10;;;0.10;;
4061;SDS011;2046;47.064;15.456;2023-07-24T01:12:29;0.10;;;0.10;;
4061;SDS011;2046;47.064;15.456;2023-07-24T01:14:49;0.10;;;0.10;;
4061;SDS011;2046;47.064;15.456;2023-07-24T01:17:20;0.00;;;0.00;;
4061;SDS011;2046;47.064;15.456;2023-07-24T01:19:47;0.10;;;0.10;;
4061;SDS011;2046;47.064;15.456;2023-07-24T01:27:26;0.00;;;0.00;;
4061;SDS011;2046;47.064;15.456;2023-07-24T01:29:53;0.10;;;0.10;;
4061;SDS011;2046;47.064;15.456;2023-07-24T01:32:19;0.10;;;0.10;;
4061;SDS011;2046;47.064;15.456;2023-07-24T01:34:46;0.10;;;0.10;;
4061;SDS011;2046;47.064;15.456;2023-07-24T01:37:13;0.10;;;0.10;;
4061;SDS011;2046;47.064;15.456;2023-07-24T01:39:40;0.10;;;0.10;;
4061;SDS011;2046;47.064;15.456;2023-07-24T01:42:08;0.10;;;0.10;;
4061;SDS011;2046;47.064;15.456;2023-07-24T01:44:35;0.10;;;0.10;;
4061;SDS011;2046;47.064;15.456;2023-07-24T01:47:01;0.10;;;0.10;;
4061;SDS011;2046;47.064;15.456;2023-07-24T01:49:28;0.10;;;0.10;;
4061;SDS011;2046;47.064;15.456;2023-07-24T01:51:55;0.10;;;0.10;;
4061;SDS011;2046;47.064;15.456;2023-07-24T01:54:21;0.08;;;0.08;;
4061;SDS011;2046;47.064;15.456;2023-07-24T01:56:48;0.20;;;0.20;;
4061;SDS011;2046;47.064;15.456;2023-07-24T01:59:14;0.03;;;0.03;;
4061;SDS011;2046;47.064;15.456;2023-07-24T02:01:41;0.10;;;0.10;;
4061;SDS011;2046;47.064;15.456;2023-07-24T02:04:08;0.10;;;0.10;;
4061;SDS011;2046;47.064;15.456;2023-07-24T02:06:34;0.05;;;0.05;;
4061;SDS011;2046;47.064;15.456;2023-07-24T02:09:01;0.15;;;0.15;;
4061;SDS011;2046;47.064;15.456;2023-07-24T02:11:27;0.05;;;0.05;;
4061;SDS011;2046;47.064;15.456;2023-07-24T02:13:54;0.10;;;0.10;;
4061;SDS011;2046;47.064;15.456;2023-07-24T02:16:21;0.10;;;0.10;;
4061;SDS011;2046;47.064;15.456;2023-07-24T02:18:47;0.10;;;0.10;;
4061;SDS011;2046;47.064;15.456;2023-07-24T02:21:14;0.10;;;0.10;;
4061;SDS011;2046;47.064;15.456;2023-07-24T02:23:40;0.10;;;0.10;;
4061;SDS011;2046;47.064;15.456;2023-07-24T02:26:07;0.10;;;0.10;;
4061;SDS011;2046;47.064;15.456;2023-07-24T02:28:33;0.10;;;0.10;;
4061;SDS011;2046;47.064;15.456;2023-07-24T02:31:00;0.10;;;0.10;;
4061;SDS011;2046;47.064;15.456;2023-07-24T02:33:27;0.10;;;0.10;;
4061;SDS011;2046;47.064;15.456;2023-07-24T02:35:53;0.03;;;0.03;;
4061;SDS011;2046;47.064;15.456;2023-07-24T02:38:20;0.05;;;0.05;;
4061;SDS011;2046;47.064;15.456;2023-07-24T02:40:47;0.10;;;0.10;;
4061;SDS011;2046;47.064;15.456;2023-07-24T02:43:13;0.00;;;0.00;;
4061;SDS011;2046;47.064;15.456;2023-07-24T02:45:41;0.10;;;0.10;;
4061;SDS011;2046;47.064;15.456;2023-07-24T02:48:09;0.10;;;0.10;;
4061;SDS011;2046;47.064;15.456;2023-07-24T02:50:36;0.10;;;0.10;;
4061;SDS011;2046;47.064;15.456;2023-07-24T02:53:02;0.15;;;0.15;;
4061;SDS011;2046;47.064;15.456;2023-07-24T02:55:29;0.10;;;0.10;;
4061;SDS011;2046;47.064;15.456;2023-07-24T02:57:56;0.10;;;0.10;;
4061;SDS011;2046;47.064;15.456;2023-07-24T03:00:22;0.10;;;0.10;;
4061;SDS011;2046;47.064;15.456;2023-07-24T03:02:49;0.00;;;0.00;;
4061;SDS011;2046;47.064;15.456;2023-07-24T03:05:15;0.00;;;0.00;;
4061;SDS011;2046;47.064;15.456;2023-07-24T03:07:42;0.10;;;0.10;;
4061;SDS011;2046;47.064;15.456;2023-07-24T03:10:09;0.10;;;0.10;;
4061;SDS011;2046;47.064;15.456;2023-07-24T03:12:35;0.10;;;0.10;;
4061;SDS011;2046;47.064;15.456;2023-07-24T03:15:02;0.10;;;0.10;;
4061;SDS011;2046;47.064;15.456;2023-07-24T03:17:29;0.10;;;0.10;;
4061;SDS011;2046;47.064;15.456;2023-07-24T03:19:55;0.20;;;0.20;;
4061;SDS011;2046;47.064;15.456;2023-07-24T03:22:22;0.10;;;0.10;;
4061;SDS011;2046;47.064;15.456;2023-07-24T03:24:48;0.10;;;0.10;;
4061;SDS011;2046;47.064;15.456;2023-07-24T03:27:15;0.10;;;0.10;;
4061;SDS011;2046;47.064;15.456;2023-07-24T03:29:41;0.10;;;0.10;;
4061;SDS011;2046;47.064;15.456;2023-07-24T03:32:08;0.10;;;0.10;;
4061;SDS011;2046;47.064;15.456;2023-07-24T03:34:35;0.00;;;0.00;;
4061;SDS011;2046;47.064;15.456;2023-07-24T03:37:02;0.10;;;0.10;;
4061;SDS011;2046;47.064;15.456;2023-07-24T03:39:28;0.10;;;0.10;;
4061;SDS011;2046;47.064;15.456;2023-07-24T03:41:55;0.10;;;0.10;;
4061;SDS011;2046;47.064;15.456;2023-07-24T03:44:21;0.10;;;0.10;;
4061;SDS011;2046;47.064;15.456;2023-07-24T03:46:48;0.10;;;0.10;;
4061;SDS011;2046;47.064;15.456;2023-07-24T03:49:14;0.10;;;0.10;;
4061;SDS011;2046;47.064;15.456;2023-07-24T03:51:41;0.10;;;0.10;;
4061;SDS011;2046;47.064;15.456;2023-07-24T03:54:07;0.10;;;0.10;;
4061;SDS011;2046;47.064;15.456;2023-07-24T03:56:34;0.00;;;0.00;;
4061;SDS011;2046;47.064;15.456;2023-07-24T03:59:00;0.10;;;0.10;;
4061;SDS011;2046;47.064;15.456;2023-07-24T04:01:27;0.10;;;0.10;;
4061;SDS011;2046;47.064;15.456;2023-07-24T04:03:53;0.10;;;0.10;;
4061;SDS011;2046;47.064;15.456;2023-07-24T04:06:20;0.10;;;0.10;;
4061;SDS011;2046;47.064;15.456;2023-07-24T04:08:47;0.10;;;0.10;;
4061;SDS011;2046;47.064;15.456;2023-07-24T04:11:14;0.10;;;0.10;;
4061;SDS011;2046;47.064;15.456;2023-07-24T04:13:40;0.10;;;0.10;;
4061;SDS011;2046;47.064;15.456;2023-07-24T04:16:07;0.00;;;0.00;;
4061;SDS011;2046;47.064;15.456;2023-07-24T04:18:33;0.10;;;0.10;;
4061;SDS011;2046;47.064;15.456;2023-07-24T04:21:00;0.10;;;0.10;;
4061;SDS011;2046;47.064;15.456;2023-07-24T04:23:26;0.10;;;0.10;;
4061;SDS011;2046;47.064;15.456;2023-07-24T04:25:53;0.10;;;0.10;;
4061;SDS011;2046;47.064;15.456;2023-07-24T04:28:19;0.10;;;0.10;;
4061;SDS011;2046;47.064;15.456;2023-07-24T04:30:46;0.10;;;0.10;;
4061;SDS011;2046;47.064;15.456;2023-07-24T04:33:13;0.10;;;0.10;;
4061;SDS011;2046;47.064;15.456;2023-07-24T04:35:39;0.10;;;0.10;;
4061;SDS011;2046;47.064;15.456;2023-07-24T04:38:06;0.10;;;0.10;;
4061;SDS011;2046;47.064;15.456;2023-07-24T04:40:32;0.10;;;0.10;;
4061;SDS011;2046;47.064;15.456;2023-07-24T04:42:59;0.10;;;0.10;;
4061;SDS011;2046;47.064;15.456;2023-07-24T04:45:26;0.10;;;0.10;;
4061;SDS011;2046;47.064;15.456;2023-07-24T04:47:52;0.10;;;0.10;;
4061;SDS011;2046;47.064;15.456;2023-07-24T04:50:19;0.10;;;0.10;;
4061;SDS011;2046;47.064;15.456;2023-07-24T04:52:45;0.20;;;0.20;;
4061;SDS011;2046;47.064;15.456;2023-07-24T04:55:12;0.10;;;0.10;;
4061;SDS011;2046;47.064;15.456;2023-07-24T04:57:38;0.20;;;0.20;;
4061;SDS011;2046;47.064;15.456;2023-07-24T05:00:05;0.10;;;0.10;;
4061;SDS011;2046;47.064;15.456;2023-07-24T05:02:32;0.10;;;0.10;;
4061;SDS011;2046;47.064;15.456;2023-07-24T05:04:58;0.20;;;0.20;;
4061;SDS011;2046;47.064;15.456;2023-07-24T05:07:25;0.30;;;0.30;;
4061;SDS011;2046;47.064;15.456;2023-07-24T05:09:51;0.17;;;0.17;;
4061;SDS011;2046;47.064;15.456;2023-07-24T05:12:18;0.38;;;0.38;;
4061;SDS011;2046;47.064;15.456;2023-07-24T05:14:44;0.30;;;0.30;;
4061;SDS011;2046;47.064;15.456;2023-07-24T05:17:11;0.20;;;0.20;;
4061;SDS011;2046;47.064;15.456;2023-07-24T05:19:37;0.10;;;0.10;;
4061;SDS011;2046;47.064;15.456;2023-07-24T05:22:04;0.10;;;0.10;;
4061;SDS011;2046;47.064;15.456;2023-07-24T05:24:31;0.10;;;0.10;;
4061;SDS011;2046;47.064;15.456;2023-07-24T05:26:58;0.00;;;0.00;;
4061;SDS011;2046;47.064;15.456;2023-07-24T05:29:24;0.10;;;0.10;;
4061;SDS011;2046;47.064;15.456;2023-07-24T05:31:51;0.10;;;0.10;;
4061;SDS011;2046;47.064;15.456;2023-07-24T05:34:18;0.00;;;0.00;;
4061;SDS011;2046;47.064;15.456;2023-07-24T05:36:44;0.20;;;0.20;;
4061;SDS011;2046;47.064;15.456;2023-07-24T05:39:11;0.10;;;0.10;;
4061;SDS011;2046;47.064;15.456;2023-07-24T05:41:37;0.10;;;0.10;;
4061;SDS011;2046;47.064;15.456;2023-07-24T05:44:06;0.10;;;0.10;;
4061;SDS011;2046;47.064;15.456;2023-07-24T05:46:33;0.10;;;0.10;;
4061;SDS011;2046;47.064;15.456;2023-07-24T05:48:59;0.10;;;0.10;;
4061;SDS011;2046;47.064;15.456;2023-07-24T05:51:28;0.10;;;0.10;;
4061;SDS011;2046;47.064;15.456;2023-07-24T05:53:55;0.10;;;0.10;;
4061;SDS011;2046;47.064;15.456;2023-07-24T05:56:21;0.10;;;0.10;;
4061;SDS011;2046;47.064;15.456;2023-07-24T05:58:49;0.10;;;0.10;;
4061;SDS011;2046;47.064;15.456;2023-07-24T06:01:15;0.20;;;0.20;;
4061;SDS011;2046;47.064;15.456;2023-07-24T06:03:42;0.10;;;0.10;;
4061;SDS011;2046;47.064;15.456;2023-07-24T06:06:08;0.10;;;0.10;;
4061;SDS011;2046;47.064;15.456;2023-07-24T06:08:35;0.10;;;0.10;;
4061;SDS011;2046;47.064;15.456;2023-07-24T06:11:02;0.10;;;0.10;;
4061;SDS011;2046;47.064;15.456;2023-07-24T06:13:28;0.10;;;0.10;;
4061;SDS011;2046;47.064;15.456;2023-07-24T06:15:55;0.10;;;0.10;;
4061;SDS011;2046;47.064;15.456;2023-07-24T06:18:21;0.22;;;0.22;;
4061;SDS011;2046;47.064;15.456;2023-07-24T06:20:51;0.15;;;0.15;;
4061;SDS011;2046;47.064;15.456;2023-07-24T06:23:18;0.10;;;0.10;;
4061;SDS011;2046;47.064;15.456;2023-07-24T06:25:45;0.10;;;0.10;;
4061;SDS011;2046;47.064;15.456;2023-07-24T06:28:11;0.10;;;0.10;;
4061;SDS011;2046;47.064;15.456;2023-07-24T06:30:38;0.13;;;0.13;;
4061;SDS011;2046;47.064;15.456;2023-07-24T06:33:05;0.17;;;0.17;;
4061;SDS011;2046;47.064;15.456;2023-07-24T06:35:31;0.10;;;0.10;;
4061;SDS011;2046;47.064;15.456;2023-07-24T06:37:58;0.10;;;0.10;;
4061;SDS011;2046;47.064;15.456;2023-07-24T06:40:25;0.63;;;0.63;;
4061;SDS011;2046;47.064;15.456;2023-07-24T06:42:51;0.10;;;0.10;;
4061;SDS011;2046;47.064;15.456;2023-07-24T06:45:19;0.20;;;0.20;;
4061;SDS011;2046;47.064;15.456;2023-07-24T06:47:45;0.20;;;0.20;;
4061;SDS011;2046;47.064;15.456;2023-07-24T06:50:12;0.10;;;0.10;;
4061;SDS011;2046;47.064;15.456;2023-07-24T06:52:39;0.10;;;0.10;;
4061;SDS011;2046;47.064;15.456;2023-07-24T06:55:05;0.10;;;0.10;;
4061;SDS011;2046;47.064;15.456;2023-07-24T06:57:32;1.30;;;1.23;;
4061;SDS011;2046;47.064;15.456;2023-07-24T06:59:59;0.28;;;0.28;;
4061;SDS011;2046;47.064;15.456;2023-07-24T07:02:25;0.10;;;0.10;;
4061;SDS011;2046;47.064;15.456;2023-07-24T07:04:52;0.20;;;0.20;;
4061;SDS011;2046;47.064;15.456;2023-07-24T07:07:19;0.10;;;0.10;;
4061;SDS011;2046;47.064;15.456;2023-07-24T07:09:45;0.10;;;0.10;;
4061;SDS011;2046;47.064;15.456;2023-07-24T07:12:12;0.10;;;0.10;;
4061;SDS011;2046;47.064;15.456;2023-07-24T07:14:38;0.28;;;0.28;;
4061;SDS011;2046;47.064;15.456;2023-07-24T07:17:05;0.30;;;0.30;;
4061;SDS011;2046;47.064;15.456;2023-07-24T07:19:32;0.10;;;0.10;;
4061;SDS011;2046;47.064;15.456;2023-07-24T07:21:58;0.20;;;0.20;;
4061;SDS011;2046;47.064;15.456;2023-07-24T07:24:25;0.30;;;0.30;;
4061;SDS011;2046;47.064;15.456;2023-07-24T07:26:52;0.22;;;0.22;;
4061;SDS011;2046;47.064;15.456;2023-07-24T07:29:18;0.10;;;0.10;;
4061;SDS011;2046;47.064;15.456;2023-07-24T07:31:45;0.10;;;0.10;;
4061;SDS011;2046;47.064;15.456;2023-07-24T07:34:11;0.10;;;0.10;;
4061;SDS011;2046;47.064;15.456;2023-07-24T07:36:38;0.10;;;0.10;;
4061;SDS011;2046;47.064;15.456;2023-07-24T07:39:05;0.10;;;0.10;;
4061;SDS011;2046;47.064;15.456;2023-07-24T07:41:31;0.10;;;0.10;;
4061;SDS011;2046;47.064;15.456;2023-07-24T07:43:58;1.08;;;0.52;;
4061;SDS011;2046;47.064;15.456;2023-07-24T07:46:25;0.10;;;0.10;;
4061;SDS011;2046;47.064;15.456;2023-07-24T07:48:52;0.10;;;0.10;;
4061;SDS011;2046;47.064;15.456;2023-07-24T07:51:18;0.10;;;0.10;;
4061;SDS011;2046;47.064;15.456;2023-07-24T07:53:45;0.10;;;0.10;;
4061;SDS011;2046;47.064;15.456;2023-07-24T07:56:12;0.10;;;0.10;;
4061;SDS011;2046;47.064;15.456;2023-07-24T07:58:38;0.08;;;0.08;;
4061;SDS011;2046;47.064;15.456;2023-07-24T08:01:05;0.10;;;0.10;;
4061;SDS011;2046;47.064;15.456;2023-07-24T08:03:32;0.10;;;0.10;;
4061;SDS011;2046;47.064;15.456;2023-07-24T08:05:59;0.10;;;0.10;;
4061;SDS011;2046;47.064;15.456;2023-07-24T08:08:26;0.10;;;0.10;;
4061;SDS011;2046;47.064;15.456;2023-07-24T08:10:53;0.10;;;0.10;;
4061;SDS011;2046;47.064;15.456;2023-07-24T08:13:19;0.20;;;0.20;;
4061;SDS011;2046;47.064;15.456;2023-07-24T08:15:46;0.10;;;0.10;;
4061;SDS011;2046;47.064;15.456;2023-07-24T08:18:13;0.10;;;0.10;;
4061;SDS011;2046;47.064;15.456;2023-07-24T08:20:39;0.10;;;0.10;;
4061;SDS011;2046;47.064;15.456;2023-07-24T08:23:06;0.10;;;0.10;;
4061;SDS011;2046;47.064;15.456;2023-07-24T08:25:33;0.10;;;0.10;;
4061;SDS011;2046;47.064;15.456;2023-07-24T08:27:59;0.20;;;0.20;;
4061;SDS011;2046;47.064;15.456;2023-07-24T08:30:31;0.10;;;0.10;;
4061;SDS011;2046;47.064;15.456;2023-07-24T08:32:58;0.10;;;0.10;;
4061;SDS011;2046;47.064;15.456;2023-07-24T08:35:26;0.10;;;0.10;;
4061;SDS011;2046;47.064;15.456;2023-07-24T08:37:52;0.20;;;0.20;;
4061;SDS011;2046;47.064;15.456;2023-07-24T08:40:19;0.20;;;0.20;;
4061;SDS011;2046;47.064;15.456;2023-07-24T08:42:46;0.20;;;0.20;;
4061;SDS011;2046;47.064;15.456;2023-07-24T08:45:14;0.10;;;0.10;;
4061;SDS011;2046;47.064;15.456;2023-07-24T08:47:42;0.20;;;0.20;;
4061;SDS011;2046;47.064;15.456;2023-07-24T08:50:10;0.95;;;0.57;;
4061;SDS011;2046;47.064;15.456;2023-07-24T08:52:41;0.20;;;0.20;;
4061;SDS011;2046;47.064;15.456;2023-07-24T08:55:09;0.25;;;0.25;;
4061;SDS011;2046;47.064;15.456;2023-07-24T08:57:36;0.20;;;0.20;;
4061;SDS011;2046;47.064;15.456;2023-07-24T09:00:02;0.17;;;0.17;;
4061;SDS011;2046;47.064;15.456;2023-07-24T09:02:32;0.30;;;0.30;;
4061;SDS011;2046;47.064;15.456;2023-07-24T09:04:59;0.10;;;0.10;;
4061;SDS011;2046;47.064;15.456;2023-07-24T09:07:26;0.20;;;0.20;;
4061;SDS011;2046;47.064;15.456;2023-07-24T09:09:52;0.40;;;0.25;;
4061;SDS011;2046;47.064;15.456;2023-07-24T09:12:19;0.50;;;0.50;;
4061;SDS011;2046;47.064;15.456;2023-07-24T09:14:45;0.20;;;0.20;;
4061;SDS011;2046;47.064;15.456;2023-07-24T09:17:12;0.40;;;0.40;;
4061;SDS011;2046;47.064;15.456;2023-07-24T09:19:39;0.20;;;0.20;;
4061;SDS011;2046;47.064;15.456;2023-07-24T09:22:09;0.45;;;0.40;;
4061;SDS011;2046;47.064;15.456;2023-07-24T09:24:36;0.20;;;0.20;;
4061;SDS011;2046;47.064;15.456;2023-07-24T09:27:06;0.10;;;0.10;;
4061;SDS011;2046;47.064;15.456;2023-07-24T09:29:33;0.10;;;0.10;;
4061;SDS011;2046;47.064;15.456;2023-07-24T09:32:01;0.10;;;0.10;;
4061;SDS011;2046;47.064;15.456;2023-07-24T09:34:28;0.10;;;0.10;;
4061;SDS011;2046;47.064;15.456;2023-07-24T09:36:55;0.10;;;0.10;;
4061;SDS011;2046;47.064;15.456;2023-07-24T09:39:22;0.10;;;0.10;;
4061;SDS011;2046;47.064;15.456;2023-07-24T09:41:49;3.20;;;0.80;;
4061;SDS011;2046;47.064;15.456;2023-07-24T09:44:16;0.10;;;0.10;;
4061;SDS011;2046;47.064;15.456;2023-07-24T09:46:43;0.10;;;0.10;;
4061;SDS011;2046;47.064;15.456;2023-07-24T09:49:30;0.63;;;0.28;;
4061;SDS011;2046;47.064;15.456;2023-07-24T09:51:57;0.05;;;0.05;;
4061;SDS011;2046;47.064;15.456;2023-07-24T09:54:26;0.10;;;0.10;;
4061;SDS011;2046;47.064;15.456;2023-07-24T09:56:55;0.10;;;0.10;;
4061;SDS011;2046;47.064;15.456;2023-07-24T09:59:42;0.15;;;0.15;;
4061;SDS011;2046;47.064;15.456;2023-07-24T10:02:09;0.20;;;0.20;;
4061;SDS011;2046;47.064;15.456;2023-07-24T10:04:37;0.10;;;0.10;;
4061;SDS011;2046;47.064;15.456;2023-07-24T10:07:06;0.00;;;0.00;;
4061;SDS011;2046;47.064;15.456;2023-07-24T10:09:33;0.10;;;0.10;;
4061;SDS011;2046;47.064;15.456;2023-07-24T10:12:01;0.10;;;0.10;;
4061;SDS011;2046;47.064;15.456;2023-07-24T10:14:28;0.10;;;0.10;;
4061;SDS011;2046;47.064;15.456;2023-07-24T10:16:56;0.10;;;0.10;;
4061;SDS011;2046;47.064;15.456;2023-07-24T10:19:23;0.10;;;0.10;;
4061;SDS011;2046;47.064;15.456;2023-07-24T10:21:50;0.10;;;0.10;;
4061;SDS011;2046;47.064;15.456;2023-07-24T10:24:17;0.10;;;0.10;;
4061;SDS011;2046;47.064;15.456;2023-07-24T10:27:04;0.10;;;0.10;;
4061;SDS011;2046;47.064;15.456;2023-07-24T10:29:33;0.10;;;0.10;;
4061;SDS011;2046;47.064;15.456;2023-07-24T10:32:00;0.00;;;0.00;;
4061;SDS011;2046;47.064;15.456;2023-07-24T10:34:36;0.10;;;0.10;;
4061;SDS011;2046;47.064;15.456;2023-07-24T10:37:02;0.10;;;0.10;;
4061;SDS011;2046;47.064;15.456;2023-07-24T10:39:37;0.10;;;0.10;;
4061;SDS011;2046;47.064;15.456;2023-07-24T10:42:07;0.10;;;0.10;;
4061;SDS011;2046;47.064;15.456;2023-07-24T10:44:34;0.20;;;0.20;;
4061;SDS011;2046;47.064;15.456;2023-07-24T10:47:01;0.10;;;0.10;;
4061;SDS011;2046;47.064;15.456;2023-07-24T10:49:28;0.10;;;0.10;;
4061;SDS011;2046;47.064;15.456;2023-07-24T10:51:56;0.10;;;0.10;;
4061;SDS011;2046;47.064;15.456;2023-07-24T10:54:22;0.10;;;0.10;;
4061;SDS011;2046;47.064;15.456;2023-07-24T10:56:49;0.05;;;0.05;;
4061;SDS011;2046;47.064;15.456;2023-07-24T10:59:17;0.00;;;0.00;;
4061;SDS011;2046;47.064;15.456;2023-07-24T11:01:44;0.13;;;0.13;;
4061;SDS011;2046;47.064;15.456;2023-07-24T11:04:10;0.10;;;0.10;;
4061;SDS011;2046;47.064;15.456;2023-07-24T11:06:39;0.10;;;0.10;;
4061;SDS011;2046;47.064;15.456;2023-07-24T11:09:07;0.00;;;0.00;;
4061;SDS011;2046;47.064;15.456;2023-07-24T11:11:46;0.10;;;0.10;;
4061;SDS011;2046;47.064;15.456;2023-07-24T11:14:13;0.00;;;0.00;;
4061;SDS011;2046;47.064;15.456;2023-07-24T11:16:50;0.10;;;0.10;;
4061;SDS011;2046;47.064;15.456;2023-07-24T11:19:26;0.10;;;0.10;;
4061;SDS011;2046;47.064;15.456;2023-07-24T11:21:53;0.20;;;0.20;;
4061;SDS011;2046;47.064;15.456;2023-07-24T11:24:20;0.17;;;0.17;;
4061;SDS011;2046;47.064;15.456;2023-07-24T11:26:46;0.15;;;0.15;;
4061;SDS011;2046;47.064;15.456;2023-07-24T11:29:13;0.10;;;0.10;;
4061;SDS011;2046;47.064;15.456;2023-07-24T11:31:40;0.20;;;0.20;;
4061;SDS011;2046;47.064;15.456;2023-07-24T11:34:07;0.10;;;0.10;;
4061;SDS011;2046;47.064;15.456;2023-07-24T11:36:34;0.10;;;0.10;;
4061;SDS011;2046;47.064;15.456;2023-07-24T11:39:00;0.00;;;0.00;;
4061;SDS011;2046;47.064;15.456;2023-07-24T11:41:27;0.20;;;0.20;;
4061;SDS011;2046;47.064;15.456;2023-07-24T11:43:56;0.10;;;0.10;;
4061;SDS011;2046;47.064;15.456;2023-07-24T11:46:26;0.10;;;0.10;;
4061;SDS011;2046;47.064;15.456;2023-07-24T11:48:54;0.00;;;0.00;;
4061;SDS011;2046;47.064;15.456;2023-07-24T11:51:26;0.10;;;0.10;;
4061;SDS011;2046;47.064;15.456;2023-07-24T11:54:07;0.10;;;0.10;;
4061;SDS011;2046;47.064;15.456;2023-07-24T11:56:34;0.10;;;0.10;;
4061;SDS011;2046;47.064;15.456;2023-07-24T11:59:11;0.20;;;0.20;;
4061;SDS011;2046;47.064;15.456;2023-07-24T12:01:38;0.10;;;0.10;;
4061;SDS011;2046;47.064;15.456;2023-07-24T12:04:05;0.10;;;0.10;;
4061;SDS011;2046;47.064;15.456;2023-07-24T12:06:32;0.10;;;0.10;;
4061;SDS011;2046;47.064;15.456;2023-07-24T12:09:02;0.10;;;0.10;;
4061;SDS011;2046;47.064;15.456;2023-07-24T12:11:31;0.10;;;0.10;;
4061;SDS011;2046;47.064;15.456;2023-07-24T12:13:58;0.10;;;0.10;;
4061;SDS011;2046;47.064;15.456;2023-07-24T12:16:25;1.77;;;1.67;;
4061;SDS011;2046;47.064;15.456;2023-07-24T12:18:51;0.10;;;0.10;;
4061;SDS011;2046;47.064;15.456;2023-07-24T12:21:18;0.20;;;0.20;;
4061;SDS011;2046;47.064;15.456;2023-07-24T12:23:44;0.13;;;0.13;;
4061;SDS011;2046;47.064;15.456;2023-07-24T12:26:11;0.10;;;0.10;;
4061;SDS011;2046;47.064;15.456;2023-07-24T12:28:38;0.10;;;0.10;;
4061;SDS011;2046;47.064;15.456;2023-07-24T12:31:04;0.10;;;0.10;;
4061;SDS011;2046;47.064;15.456;2023-07-24T12:33:32;0.10;;;0.10;;
4061;SDS011;2046;47.064;15.456;2023-07-24T12:35:58;0.10;;;0.10;;
4061;SDS011;2046;47.064;15.456;2023-07-24T12:38:25;0.10;;;0.10;;
4061;SDS011;2046;47.064;15.456;2023-07-24T12:40:52;0.30;;;0.30;;
4061;SDS011;2046;47.064;15.456;2023-07-24T12:43:19;0.10;;;0.10;;
4061;SDS011;2046;47.064;15.456;2023-07-24T12:45:45;0.10;;;0.10;;
4061;SDS011;2046;47.064;15.456;2023-07-24T12:48:12;0.20;;;0.20;;
4061;SDS011;2046;47.064;15.456;2023-07-24T12:50:39;0.32;;;0.32;;
4061;SDS011;2046;47.064;15.456;2023-07-24T12:53:05;4.75;;;4.40;;
4061;SDS011;2046;47.064;15.456;2023-07-24T12:55:39;0.10;;;0.10;;
4061;SDS011;2046;47.064;15.456;2023-07-24T12:58:05;0.10;;;0.10;;
4061;SDS011;2046;47.064;15.456;2023-07-24T13:00:32;0.00;;;0.00;;
4061;SDS011;2046;47.064;15.456;2023-07-24T13:02:59;0.10;;;0.10;;
4061;SDS011;2046;47.064;15.456;2023-07-24T13:05:25;0.10;;;0.10;;
4061;SDS011;2046;47.064;15.456;2023-07-24T13:07:52;0.10;;;0.10;;
4061;SDS011;2046;47.064;15.456;2023-07-24T13:10:19;0.10;;;0.10;;
4061;SDS011;2046;47.064;15.456;2023-07-24T13:12:45;0.10;;;0.10;;
4061;SDS011;2046;47.064;15.456;2023-07-24T13:15:12;0.20;;;0.20;;
4061;SDS011;2046;47.064;15.456;2023-07-24T13:17:39;0.10;;;0.10;;
4061;SDS011;2046;47.064;15.456;2023-07-24T13:20:06;0.10;;;0.10;;
4061;SDS011;2046;47.064;15.456;2023-07-24T13:22:33;0.10;;;0.10;;
4061;SDS011;2046;47.064;15.456;2023-07-24T13:25:00;0.10;;;0.10;;
4061;SDS011;2046;47.064;15.456;2023-07-24T13:27:26;0.10;;;0.10;;
4061;SDS011;2046;47.064;15.456;2023-07-24T13:29:53;0.20;;;0.20;;
4061;SDS011;2046;47.064;15.456;2023-07-24T13:32:20;0.10;;;0.10;;
4061;SDS011;2046;47.064;15.456;2023-07-24T13:34:47;0.10;;;0.10;;
4061;SDS011;2046;47.064;15.456;2023-07-24T13:37:14;0.10;;;0.10;;
4061;SDS011;2046;47.064;15.456;2023-07-24T13:39:40;0.10;;;0.10;;
4061;SDS011;2046;47.064;15.456;2023-07-24T13:42:07;0.40;;;0.40;;
4061;SDS011;2046;47.064;15.456;2023-07-24T13:44:34;0.10;;;0.10;;
4061;SDS011;2046;47.064;15.456;2023-07-24T13:47:00;0.20;;;0.20;;
4061;SDS011;2046;47.064;15.456;2023-07-24T13:49:27;0.80;;;0.80;;
4061;SDS011;2046;47.064;15.456;2023-07-24T18:21:20;6.15;;;2.58;;
4061;SDS011;2046;47.064;15.456;2023-07-24T18:23:47;1.88;;;0.55;;
4061;SDS011;2046;47.064;15.456;2023-07-24T18:26:13;1.88;;;0.60;;
4061;SDS011;2046;47.064;15.456;2023-07-24T18:28:40;1.60;;;0.88;;
4061;SDS011;2046;47.064;15.456;2023-07-24T18:31:07;1.17;;;0.50;;
4061;SDS011;2046;47.064;15.456;2023-07-24T18:33:34;1.88;;;0.65;;
4061;SDS011;2046;47.064;15.456;2023-07-24T18:36:01;1.70;;;0.60;;
4061;SDS011;2046;47.064;15.456;2023-07-24T18:38:28;2.00;;;0.65;;
4061;SDS011;2046;47.064;15.456;2023-07-24T18:40:55;2.00;;;0.57;;
4061;SDS011;2046;47.064;15.456;2023-07-24T18:43:21;2.08;;;0.70;;
4061;SDS011;2046;47.064;15.456;2023-07-24T18:45:48;2.33;;;0.70;;
4061;SDS011;2046;47.064;15.456;2023-07-24T18:48:15;3.85;;;1.63;;
4061;SDS011;2046;47.064;15.456;2023-07-24T18:50:42;2.40;;;0.70;;
4061;SDS011;2046;47.064;15.456;2023-07-24T18:53:10;1.67;;;0.40;;
4061;SDS011;2046;47.064;15.456;2023-07-24T18:55:38;2.10;;;0.77;;
4061;SDS011;2046;47.064;15.456;2023-07-24T18:58:06;2.72;;;1.23;;
4061;SDS011;2046;47.064;15.456;2023-07-24T19:00:32;2.20;;;0.55;;
4061;SDS011;2046;47.064;15.456;2023-07-24T19:03:00;1.98;;;0.60;;
4061;SDS011;2046;47.064;15.456;2023-07-24T19:05:27;2.78;;;1.02;;
4061;SDS011;2046;47.064;15.456;2023-07-24T19:07:54;3.20;;;1.08;;
4061;SDS011;2046;47.064;15.456;2023-07-24T19:10:20;3.67;;;1.92;;
4061;SDS011;2046;47.064;15.456;2023-07-24T19:12:47;3.35;;;1.45;;
4061;SDS011;2046;47.064;15.456;2023-07-24T19:15:13;3.05;;;1.15;;
4061;SDS011;2046;47.064;15.456;2023-07-24T19:17:40;2.70;;;0.52;;
4061;SDS011;2046;47.064;15.456;2023-07-24T19:20:09;2.75;;;0.45;;
4061;SDS011;2046;47.064;15.456;2023-07-24T19:22:39;3.38;;;0.82;;
4061;SDS011;2046;47.064;15.456;2023-07-24T19:25:06;3.15;;;0.50;;
4061;SDS011;2046;47.064;15.456;2023-07-24T19:27:33;3.08;;;0.50;;
4061;SDS011;2046;47.064;15.456;2023-07-24T19:30:00;4.00;;;0.85;;
4061;SDS011;2046;47.064;15.456;2023-07-24T19:32:33;4.75;;;1.40;;
4061;SDS011;2046;47.064;15.456;2023-07-24T19:35:05;4.05;;;0.63;;